createdAt,value
2023-11-21T00:01:27.694Z,5.28
2023-11-21T00:03:58.175Z,5.24
2023-11-21T00:06:28.986Z,5.27
2023-11-21T00:09:00.585Z,5.27
2023-11-21T00:11:33.537Z,5.29
2023-11-21T00:14:04.382Z,5.23
2023-11-21T00:16:37.732Z,5.24
2023-11-21T00:19:11.266Z,5.21
2023-11-21T00:21:41.996Z,5.16
2023-11-21T00:24:15.058Z,5.13
2023-11-21T00:26:59.605Z,5.09
2023-11-21T00:29:30.432Z,5.07
2023-11-21T00:32:00.708Z,5.02
2023-11-21T00:34:36.756Z,4.97
2023-11-21T00:37:08.599Z,4.95
2023-11-21T00:39:38.949Z,4.93
2023-11-21T00:42:13.656Z,4.97
2023-11-21T00:44:44.504Z,4.96
2023-11-21T00:47:17.446Z,4.90
2023-11-21T00:49:48.217Z,4.90
2023-11-21T00:52:18.548Z,4.84
2023-11-21T00:54:49.457Z,4.91
2023-11-21T00:57:22.789Z,4.94
2023-11-21T00:59:53.631Z,4.92
2023-11-21T01:02:26.860Z,4.94
2023-11-21T01:04:57.838Z,4.94
2023-11-21T01:07:28.881Z,4.90
2023-11-21T01:10:05.052Z,4.89
2023-11-21T01:12:38.934Z,4.83
2023-11-21T01:15:13.462Z,4.79
2023-11-21T01:17:44.260Z,4.68
2023-11-21T01:20:15.386Z,4.64
2023-11-21T01:22:46.459Z,4.57
2023-11-21T01:25:17.783Z,4.50
2023-11-21T01:27:50.756Z,4.37
2023-11-21T01:30:22.302Z,4.37
2023-11-21T01:32:52.663Z,4.36
2023-11-21T01:35:23.338Z,4.38
2023-11-21T01:37:56.842Z,4.35
2023-11-21T01:40:31.795Z,4.40
2023-11-21T01:43:05.412Z,4.40
2023-11-21T01:45:35.682Z,4.41
2023-11-21T01:48:08.259Z,4.42
2023-11-21T01:50:39.133Z,4.42
2023-11-21T01:53:10.055Z,4.44
2023-11-21T01:55:40.809Z,4.51
2023-11-21T01:58:15.190Z,4.54
2023-11-21T02:00:46.024Z,4.56
2023-11-21T02:03:16.556Z,4.60
2023-11-21T02:05:47.416Z,4.55
2023-11-21T02:08:18.231Z,4.54
2023-11-21T02:10:49.581Z,4.45
2023-11-21T02:13:23.044Z,4.39
2023-11-21T02:15:55.840Z,4.37
2023-11-21T02:18:26.738Z,4.36
2023-11-21T02:20:57.237Z,4.36
2023-11-21T02:23:30.788Z,4.36
2023-11-21T02:26:05.700Z,4.31
2023-11-21T02:28:36.209Z,4.30
2023-11-21T02:31:06.956Z,4.33
2023-11-21T02:33:37.764Z,4.31
2023-11-21T02:36:09.735Z,4.29
2023-11-21T02:38:43.110Z,4.28
2023-11-21T02:41:15.737Z,4.29
2023-11-21T02:43:46.547Z,4.25
2023-11-21T02:46:17.506Z,4.24
2023-11-21T02:48:47.811Z,4.25
2023-11-21T02:51:21.116Z,4.24
2023-11-21T02:53:54.946Z,4.26
2023-11-21T02:56:27.598Z,4.28
2023-11-21T02:59:01.188Z,4.28
2023-11-21T03:01:33.276Z,4.24
2023-11-21T03:04:04.224Z,4.25
2023-11-21T03:06:35.171Z,4.25
2023-11-21T03:09:08.752Z,4.28
2023-11-21T03:11:39.013Z,4.25
2023-11-21T03:14:12.077Z,4.28
2023-11-21T03:16:44.036Z,4.30
2023-11-21T03:19:16.336Z,4.43
2023-11-21T03:21:47.199Z,4.39
2023-11-21T03:24:21.157Z,4.38
2023-11-21T03:26:55.017Z,4.36
2023-11-21T03:29:27.587Z,4.34
2023-11-21T03:31:57.847Z,4.30
2023-11-21T03:34:30.102Z,4.30
2023-11-21T03:37:01.014Z,4.29
2023-11-21T03:39:37.171Z,4.39
2023-11-21T03:42:08.364Z,4.43
2023-11-21T03:44:41.605Z,4.47
2023-11-21T03:47:23.838Z,4.52
2023-11-21T03:49:54.667Z,4.49
2023-11-21T03:52:25.644Z,4.50
2023-11-21T03:55:01.770Z,4.51
2023-11-21T03:57:32.119Z,4.50
2023-11-21T04:00:02.385Z,4.54
2023-11-21T04:02:33.631Z,4.55
2023-11-21T04:05:04.997Z,4.57
2023-11-21T04:07:38.640Z,4.57
2023-11-21T04:10:14.601Z,4.53
2023-11-21T04:12:44.986Z,4.47
2023-11-21T04:15:16.512Z,4.44
2023-11-21T04:17:48.360Z,4.44
2023-11-21T04:20:19.673Z,4.48
2023-11-21T04:22:50.204Z,4.45
2023-11-21T04:25:28.615Z,4.39
2023-11-21T04:27:59.738Z,4.33
2023-11-21T04:30:30.849Z,4.35
2023-11-21T04:33:01.613Z,4.32
2023-11-21T04:35:32.008Z,4.32
2023-11-21T04:38:02.423Z,4.31
2023-11-21T04:40:35.739Z,4.26
2023-11-21T04:43:08.140Z,4.25
2023-11-21T04:45:38.901Z,4.24
2023-11-21T04:48:11.813Z,4.20
2023-11-21T04:50:42.157Z,4.20
2023-11-21T04:53:14.679Z,4.21
2023-11-21T04:55:50.930Z,4.21
2023-11-21T04:58:24.159Z,4.20
2023-11-21T05:00:55.015Z,4.21
2023-11-21T05:03:26.064Z,4.25
2023-11-21T05:05:57.258Z,4.24
2023-11-21T05:08:27.643Z,4.27
2023-11-21T05:11:03.828Z,4.27
2023-11-21T05:13:37.795Z,4.31
2023-11-21T05:16:08.938Z,4.35
2023-11-21T05:18:43.795Z,4.42
2023-11-21T05:21:14.213Z,4.41
2023-11-21T05:23:44.840Z,4.41
2023-11-21T05:26:21.765Z,4.36
2023-11-21T05:28:52.622Z,4.17
2023-11-21T05:31:23.256Z,4.25
2023-11-21T05:33:57.470Z,4.33
2023-11-21T05:36:27.818Z,4.38
2023-11-21T05:38:58.309Z,4.43
2023-11-21T05:41:31.749Z,4.42
2023-11-21T05:44:02.577Z,4.49
2023-11-21T05:46:34.435Z,4.52
2023-11-21T05:49:05.620Z,4.52
2023-11-21T05:51:36.404Z,4.58
2023-11-21T05:54:07.258Z,4.59
2023-11-21T05:56:40.615Z,4.63
2023-11-21T05:59:11.535Z,4.63
2023-11-21T06:01:44.664Z,4.66
2023-11-21T06:04:15.941Z,4.76
2023-11-21T06:06:46.982Z,4.70
2023-11-21T06:09:19.788Z,4.70
2023-11-21T06:11:53.130Z,4.76
2023-11-21T06:14:26.168Z,4.80
2023-11-21T06:16:58.041Z,4.82
2023-11-21T06:19:28.921Z,4.88
2023-11-21T06:22:02.748Z,4.90
2023-11-21T06:24:37.244Z,4.91
2023-11-21T06:27:10.660Z,4.95
2023-11-21T06:29:41.075Z,4.96
2023-11-21T06:32:12.059Z,4.95
2023-11-21T06:34:42.390Z,5.02
2023-11-21T06:37:13.367Z,5.07
2023-11-21T06:39:43.809Z,5.18
2023-11-21T06:42:17.115Z,5.30
2023-11-21T06:44:52.986Z,5.36
2023-11-21T06:47:26.230Z,5.45
2023-11-21T06:49:57.706Z,5.52
2023-11-21T06:52:28.088Z,5.54
2023-11-21T06:54:58.569Z,5.60
2023-11-21T06:57:34.120Z,5.64
2023-11-21T07:00:05.014Z,5.70
2023-11-21T07:02:35.750Z,5.71
2023-11-21T07:05:10.084Z,5.75
2023-11-21T07:07:41.208Z,5.82
2023-11-21T07:10:12.373Z,5.87
2023-11-21T07:12:48.122Z,5.93
2023-11-21T07:15:20.973Z,5.95
2023-11-21T07:17:51.855Z,6.02
2023-11-21T07:20:22.829Z,6.08
2023-11-21T07:22:55.930Z,6.11
2023-11-21T07:25:26.799Z,6.22
2023-11-21T07:27:59.706Z,6.30
2023-11-21T07:30:31.131Z,6.38
2023-11-21T07:33:02.412Z,6.47
2023-11-21T07:35:33.162Z,6.55
2023-11-21T07:38:03.560Z,6.63
2023-11-21T07:40:34.360Z,6.70
2023-11-21T07:43:07.287Z,6.78
2023-11-21T07:45:40.401Z,6.84
2023-11-21T07:48:13.565Z,6.97
2023-11-21T07:50:43.931Z,7.10
2023-11-21T07:53:14.920Z,7.19
2023-11-21T07:55:48.907Z,7.26
2023-11-21T07:58:22.630Z,7.34
2023-11-21T08:00:53.488Z,7.46
2023-11-21T08:03:24.612Z,7.51
2023-11-21T08:05:56.092Z,7.59
2023-11-21T08:08:29.548Z,7.70
2023-11-21T08:11:00.227Z,7.79
2023-11-21T08:13:36.011Z,7.90
2023-11-21T08:16:08.812Z,7.98
2023-11-21T08:18:41.636Z,8.06
2023-11-21T08:21:13.551Z,8.15
2023-11-21T08:23:45.905Z,8.27
2023-11-21T08:26:16.799Z,8.33
2023-11-21T08:28:50.256Z,8.39
2023-11-21T08:31:20.555Z,8.41
2023-11-21T08:33:51.999Z,8.51
2023-11-21T08:36:24.386Z,8.44
2023-11-21T08:38:57.546Z,8.45
2023-11-21T08:41:29.324Z,8.56
2023-11-21T08:44:08.975Z,8.61
2023-11-21T08:46:43.413Z,8.60
2023-11-21T08:49:17.785Z,8.57
2023-11-21T08:51:48.888Z,8.62
2023-11-21T08:54:19.167Z,8.62
2023-11-21T08:56:51.428Z,8.59
2023-11-21T08:59:24.384Z,8.68
2023-11-21T09:01:55.090Z,8.79
2023-11-21T09:04:25.194Z,8.85
2023-11-21T09:06:55.981Z,8.90
2023-11-21T09:09:26.453Z,8.94
2023-11-21T09:12:01.994Z,9.04
2023-11-21T09:14:35.335Z,9.13
2023-11-21T09:17:12.255Z,9.20
2023-11-21T09:19:44.832Z,9.19
2023-11-21T09:22:18.102Z,9.32
2023-11-21T09:24:51.317Z,9.35
2023-11-21T09:27:23.006Z,9.43
2023-11-21T09:29:59.472Z,9.50
2023-11-21T09:32:31.180Z,9.45
2023-11-21T09:35:03.569Z,9.47
2023-11-21T09:37:35.075Z,9.54
2023-11-21T09:40:06.534Z,9.63
2023-11-21T09:42:44.590Z,9.62
2023-11-21T09:45:27.392Z,9.63
2023-11-21T09:47:59.359Z,9.61
2023-11-21T09:50:31.535Z,9.61
2023-11-21T09:53:12.112Z,9.71
2023-11-21T09:55:48.087Z,9.80
2023-11-21T09:58:23.070Z,9.88
2023-11-21T10:00:58.182Z,9.90
2023-11-21T10:03:29.196Z,10.00
2023-11-21T10:06:02.143Z,9.94
2023-11-21T10:08:42.979Z,9.88
2023-11-21T10:11:24.180Z,9.63
2023-11-21T10:13:58.723Z,9.60
2023-11-21T10:16:33.702Z,9.52
2023-11-21T10:19:09.478Z,9.50
2023-11-21T10:21:42.815Z,9.52
2023-11-21T10:24:14.007Z,9.55
2023-11-21T10:26:51.223Z,9.56
2023-11-21T10:29:29.329Z,9.60
2023-11-21T10:32:03.451Z,9.67
2023-11-21T10:34:34.216Z,9.65
2023-11-21T10:37:18.092Z,9.64
2023-11-21T10:39:49.352Z,9.65
2023-11-21T10:42:22.471Z,9.61
2023-11-21T10:44:53.483Z,9.58
2023-11-21T10:47:27.621Z,9.58
2023-11-21T10:49:58.470Z,9.67
2023-11-21T10:52:31.333Z,9.73
2023-11-21T10:55:04.941Z,9.58
2023-11-21T10:57:36.518Z,9.58
2023-11-21T11:00:09.056Z,9.57
2023-11-21T11:02:43.541Z,9.42
2023-11-21T11:05:16.684Z,9.46
2023-11-21T11:07:49.129Z,9.51
2023-11-21T11:10:22.245Z,9.56
2023-11-21T11:12:53.840Z,9.66
2023-11-21T11:15:28.773Z,9.60
2023-11-21T11:18:06.244Z,9.60
2023-11-21T11:20:42.137Z,9.60
2023-11-21T11:23:31.524Z,9.51
2023-11-21T11:26:19.016Z,9.24
2023-11-21T11:28:56.249Z,9.27
2023-11-21T11:31:42.065Z,9.17
2023-11-21T11:34:29.205Z,9.22
2023-11-21T11:37:09.616Z,9.26
2023-11-21T11:39:43.126Z,9.27
2023-11-21T11:42:19.716Z,9.28
2023-11-21T11:44:59.056Z,9.12
2023-11-21T11:47:35.457Z,9.07
2023-11-21T11:50:15.017Z,9.11
2023-11-21T11:52:52.182Z,9.08
2023-11-21T11:55:24.381Z,9.09
2023-11-21T11:57:56.895Z,9.00
2023-11-21T12:00:39.158Z,9.03
2023-11-21T12:03:13.151Z,8.97
2023-11-21T12:05:46.762Z,8.75
2023-11-21T12:08:17.017Z,8.60
2023-11-21T12:10:50.116Z,8.58
2023-11-21T12:13:26.464Z,8.44
2023-11-21T12:15:58.056Z,8.56
2023-11-21T12:18:29.328Z,8.67
2023-11-21T12:21:03.049Z,8.69
2023-11-21T12:23:36.711Z,8.70
2023-11-21T12:26:12.045Z,8.71
2023-11-21T12:28:42.479Z,8.70
2023-11-21T12:31:19.963Z,8.61
2023-11-21T12:33:53.933Z,8.48
2023-11-21T12:36:27.145Z,8.52
2023-11-21T12:38:58.378Z,8.56
2023-11-21T12:41:29.215Z,8.53
2023-11-21T12:44:00.079Z,8.42
2023-11-21T12:46:35.626Z,8.30
2023-11-21T12:49:06.032Z,8.19
2023-11-21T12:51:39.484Z,8.16
2023-11-21T12:54:11.410Z,8.19
2023-11-21T12:56:42.866Z,8.18
2023-11-21T12:59:17.045Z,8.07
2023-11-21T13:01:50.566Z,8.14
2023-11-21T13:04:23.893Z,8.14
2023-11-21T13:07:00.874Z,8.14
2023-11-21T13:09:33.021Z,8.08
2023-11-21T13:12:07.525Z,8.01
2023-11-21T13:14:38.635Z,7.98
2023-11-21T13:17:09.047Z,7.86
2023-11-21T13:19:40.046Z,7.97
2023-11-21T13:22:13.260Z,8.08
2023-11-21T13:24:47.359Z,8.08
2023-11-21T13:27:17.714Z,8.05
2023-11-21T13:29:51.259Z,8.10
2023-11-21T13:32:23.614Z,8.09
2023-11-21T13:34:57.159Z,8.16
2023-11-21T13:37:33.439Z,8.15
2023-11-21T13:40:05.202Z,8.18
2023-11-21T13:42:35.576Z,8.19
2023-11-21T13:45:07.863Z,8.22
2023-11-21T13:47:39.476Z,8.23
2023-11-21T13:50:18.312Z,8.20
2023-11-21T13:52:51.301Z,8.22
2023-11-21T13:55:25.528Z,8.23
2023-11-21T13:58:00.471Z,8.23
2023-11-21T14:00:43.614Z,8.26
2023-11-21T14:03:20.242Z,8.24
2023-11-21T14:05:54.111Z,8.26
2023-11-21T14:08:29.932Z,8.31
2023-11-21T14:11:01.325Z,8.23
2023-11-21T14:13:35.466Z,8.22
2023-11-21T14:16:08.025Z,8.15
2023-11-21T14:18:44.954Z,8.16
2023-11-21T14:21:16.831Z,8.06
2023-11-21T14:23:50.307Z,7.99
2023-11-21T14:26:22.105Z,8.01
2023-11-21T14:28:53.566Z,7.83
2023-11-21T14:31:29.062Z,7.84
2023-11-21T14:34:03.141Z,7.87
2023-11-21T14:36:33.783Z,7.87
2023-11-21T14:39:10.601Z,7.91
2023-11-21T14:41:41.400Z,7.88
2023-11-21T14:44:13.652Z,7.90
2023-11-21T14:46:47.534Z,7.88
2023-11-21T14:49:24.720Z,7.87
2023-11-21T14:52:08.764Z,7.75
2023-11-21T14:54:47.453Z,7.75
2023-11-21T14:57:19.819Z,7.62
2023-11-21T14:59:53.503Z,7.56
2023-11-21T15:02:23.919Z,7.61
2023-11-21T15:05:05.564Z,7.67
2023-11-21T15:07:36.276Z,7.70
2023-11-21T15:10:17.015Z,7.76
2023-11-21T15:12:47.976Z,7.61
2023-11-21T15:15:20.096Z,7.63
2023-11-21T15:17:50.948Z,7.69
2023-11-21T15:20:24.031Z,7.69
2023-11-21T15:22:55.249Z,7.72
2023-11-21T15:25:28.741Z,7.68
2023-11-21T15:27:59.122Z,7.71
2023-11-21T15:30:35.836Z,7.75
2023-11-21T15:33:06.694Z,7.68
2023-11-21T15:35:39.478Z,7.65
2023-11-21T15:38:10.282Z,7.67
2023-11-21T15:40:44.774Z,7.71
2023-11-21T15:43:15.141Z,7.72
2023-11-21T15:45:46.006Z,7.76
2023-11-21T15:48:17.809Z,7.77
2023-11-21T15:50:48.989Z,7.73
2023-11-21T15:53:19.835Z,7.74
2023-11-21T15:55:53.243Z,7.68
2023-11-21T15:58:23.619Z,7.73
2023-11-21T16:00:55.099Z,7.67
2023-11-21T16:03:26.234Z,7.65
2023-11-21T16:05:56.316Z,7.63
2023-11-21T16:08:27.349Z,7.61
2023-11-21T16:11:04.623Z,7.62
2023-11-21T16:13:35.782Z,7.65
2023-11-21T16:16:06.847Z,7.62
2023-11-21T16:18:39.958Z,7.60
2023-11-21T16:21:13.857Z,7.55
2023-11-21T16:23:44.145Z,7.51
2023-11-21T16:26:20.523Z,7.48
2023-11-21T16:28:50.929Z,7.45
2023-11-21T16:31:26.340Z,7.45
2023-11-21T16:34:03.309Z,7.33
2023-11-21T16:36:39.558Z,7.35
2023-11-21T16:39:11.121Z,7.40
2023-11-21T16:41:53.436Z,7.37
2023-11-21T16:44:27.344Z,7.36
2023-11-21T16:46:58.903Z,7.25
2023-11-21T16:49:30.990Z,7.25
2023-11-21T16:52:01.943Z,7.25
2023-11-21T16:54:37.066Z,7.26
2023-11-21T16:57:10.296Z,7.26
2023-11-21T16:59:41.048Z,7.26
2023-11-21T17:02:14.630Z,7.16
2023-11-21T17:04:48.490Z,7.09
2023-11-21T17:07:22.981Z,7.04
2023-11-21T17:09:54.038Z,7.02
2023-11-21T17:12:27.648Z,7.03
2023-11-21T17:14:57.972Z,7.05
2023-11-21T17:17:28.619Z,6.92
2023-11-21T17:20:01.728Z,6.90
2023-11-21T17:22:32.750Z,6.90
2023-11-21T17:25:03.544Z,6.95
2023-11-21T17:27:36.992Z,6.91
2023-11-21T17:30:08.195Z,6.87
2023-11-21T17:32:39.297Z,6.81
2023-11-21T17:35:12.869Z,6.81
2023-11-21T17:37:57.181Z,6.82
2023-11-21T17:40:31.015Z,6.80
2023-11-21T17:43:04.629Z,6.85
2023-11-21T17:45:35.084Z,6.89
2023-11-21T17:48:05.891Z,6.87
2023-11-21T17:50:35.945Z,6.82
2023-11-21T17:53:06.318Z,6.79
2023-11-21T17:55:42.492Z,6.67
2023-11-21T17:58:18.695Z,6.65
2023-11-21T18:00:50.153Z,6.65
2023-11-21T18:03:22.016Z,6.56
2023-11-21T18:05:52.412Z,6.52
2023-11-21T18:08:23.366Z,6.52
2023-11-21T18:10:54.429Z,6.48
2023-11-21T18:13:27.429Z,6.40
2023-11-21T18:15:58.356Z,6.43
2023-11-21T18:18:32.041Z,6.31
2023-11-21T18:21:04.822Z,6.33
2023-11-21T18:23:35.566Z,6.29
2023-11-21T18:26:05.915Z,6.32
2023-11-21T18:28:43.726Z,6.38
2023-11-21T18:31:16.379Z,6.34
2023-11-21T18:33:47.781Z,6.32
2023-11-21T18:36:21.136Z,6.26
2023-11-21T18:38:55.511Z,6.22
2023-11-21T18:41:27.942Z,6.28
2023-11-21T18:44:01.445Z,6.36
2023-11-21T18:46:39.246Z,6.30
2023-11-21T18:49:10.484Z,6.25
2023-11-21T18:51:43.093Z,6.22
2023-11-21T18:54:13.358Z,6.12
2023-11-21T18:56:46.690Z,6.11
2023-11-21T18:59:22.262Z,6.03
2023-11-21T19:01:53.088Z,5.94
2023-11-21T19:04:25.705Z,5.95
2023-11-21T19:07:00.849Z,5.98
2023-11-21T19:09:42.300Z,5.97
2023-11-21T19:12:14.880Z,5.97
2023-11-21T19:14:51.547Z,6.02
2023-11-21T19:17:23.475Z,6.08
2023-11-21T19:19:53.784Z,6.05
2023-11-21T19:22:24.071Z,6.05
2023-11-21T19:24:54.682Z,6.02
2023-11-21T19:27:25.158Z,5.92
2023-11-21T19:30:04.979Z,5.95
2023-11-21T19:32:39.438Z,6.00
2023-11-21T19:35:11.072Z,5.96
2023-11-21T19:37:41.510Z,5.92
2023-11-21T19:40:15.772Z,5.90
2023-11-21T19:42:49.650Z,5.81
2023-11-21T19:45:27.792Z,5.74
2023-11-21T19:47:58.973Z,5.69
2023-11-21T19:50:30.133Z,5.60
2023-11-21T19:53:01.172Z,5.58
2023-11-21T19:55:35.877Z,5.50
2023-11-21T19:58:08.218Z,5.50
2023-11-21T20:00:41.964Z,5.50
2023-11-21T20:03:12.909Z,5.45
2023-11-21T20:05:48.010Z,5.47
2023-11-21T20:08:24.719Z,5.47
2023-11-21T20:10:58.306Z,5.48
2023-11-21T20:13:29.492Z,5.46
2023-11-21T20:16:02.779Z,5.45
2023-11-21T20:18:34.335Z,5.38
2023-11-21T20:21:04.933Z,5.42
2023-11-21T20:23:35.882Z,5.31
2023-11-21T20:26:08.309Z,5.31
2023-11-21T20:28:39.962Z,5.28
2023-11-21T20:31:16.183Z,5.29
2023-11-21T20:33:47.447Z,5.30
2023-11-21T20:36:17.979Z,5.28
2023-11-21T20:38:49.114Z,5.29
2023-11-21T20:41:22.358Z,5.29
2023-11-21T20:43:57.486Z,5.26
2023-11-21T20:46:37.093Z,5.24
2023-11-21T20:49:08.324Z,5.22
2023-11-21T20:51:42.409Z,5.21
2023-11-21T20:54:12.666Z,5.19
2023-11-21T20:56:43.232Z,5.18
2023-11-21T20:59:16.889Z,5.20
2023-11-21T21:01:50.393Z,5.16
2023-11-21T21:04:22.341Z,5.08
2023-11-21T21:06:55.992Z,5.10
2023-11-21T21:09:26.337Z,5.09
2023-11-21T21:11:58.772Z,5.08
2023-11-21T21:14:30.901Z,5.07
2023-11-21T21:17:04.673Z,5.07
2023-11-21T21:19:35.085Z,5.10
2023-11-21T21:22:05.843Z,5.07
2023-11-21T21:24:38.195Z,5.00
2023-11-21T21:27:09.001Z,4.86
2023-11-21T21:29:40.826Z,4.77
2023-11-21T21:32:14.209Z,4.70
2023-11-21T21:34:44.556Z,4.61
2023-11-21T21:37:15.371Z,4.55
2023-11-21T21:39:46.361Z,4.53
2023-11-21T21:42:17.158Z,4.44
2023-11-21T21:44:47.446Z,4.44
2023-11-21T21:47:20.355Z,4.36
2023-11-21T21:49:51.653Z,4.36
2023-11-21T21:52:22.432Z,4.36
2023-11-21T21:54:53.204Z,4.36
2023-11-21T21:57:23.969Z,4.38
2023-11-21T21:59:55.412Z,4.42
2023-11-21T22:02:28.974Z,4.44
2023-11-21T22:04:59.942Z,4.43
2023-11-21T22:07:30.491Z,4.45
2023-11-21T22:10:00.873Z,4.42
2023-11-21T22:12:31.396Z,4.37
2023-11-21T22:15:03.793Z,4.32
2023-11-21T22:17:40.020Z,4.29
2023-11-21T22:20:12.111Z,4.27
2023-11-21T22:22:43.155Z,4.20
2023-11-21T22:25:15.996Z,4.16
2023-11-21T22:27:46.846Z,4.15
2023-11-21T22:30:17.898Z,4.11
2023-11-21T22:32:53.542Z,4.10
2023-11-21T22:35:24.349Z,4.08
2023-11-21T22:37:55.578Z,4.05
2023-11-21T22:40:28.847Z,4.03
2023-11-21T22:43:00.220Z,4.00
2023-11-21T22:45:31.418Z,3.93
2023-11-21T22:48:04.911Z,3.85
2023-11-21T22:50:35.277Z,3.77
2023-11-21T22:53:05.915Z,3.75
2023-11-21T22:55:36.777Z,3.71
2023-11-21T22:58:08.187Z,3.67
2023-11-21T23:00:39.817Z,3.61
2023-11-21T23:03:15.481Z,3.58
2023-11-21T23:05:49.091Z,3.54
2023-11-21T23:08:19.877Z,3.46
2023-11-21T23:10:51.187Z,3.41
2023-11-21T23:13:23.558Z,3.39
2023-11-21T23:15:56.580Z,3.36
2023-11-21T23:18:31.377Z,3.34
2023-11-21T23:21:02.516Z,3.33
2023-11-21T23:23:34.395Z,3.27
2023-11-21T23:26:05.150Z,3.27
2023-11-21T23:28:35.605Z,3.27
2023-11-21T23:31:06.317Z,3.25
2023-11-21T23:33:42.314Z,3.21
2023-11-21T23:36:14.091Z,3.14
2023-11-21T23:38:44.976Z,3.14
2023-11-21T23:41:17.762Z,3.15
2023-11-21T23:43:48.607Z,3.15
2023-11-21T23:46:19.177Z,3.11
2023-11-21T23:48:52.589Z,3.09
2023-11-21T23:51:25.483Z,3.06
2023-11-21T23:53:56.535Z,3.10
2023-11-21T23:56:27.426Z,3.09
2023-11-21T23:58:58.209Z,3.11
